Milwaukee, WI

2:55 AM CST on December 19, 2014 (GMT -0600)
L Section - Arcturan Station | Change Station
CLOSE
Current Station
Personal Weather Station
Location: Greendale, WI
Elevation: 810 ft
Nearby Weather Stations
Active Advisory: Special Weather Statement Active Notice: Local Storm Report

Elev 810 ft 42.94 °N, 87.98 °W | Updated 47 seconds ago

Overcast
Overcast
26.1 °F
Feels Like 26 °F
N
0.0
Wind Variable Wind from NW
Gusts 0.0 mph

Today
High -- | Low -- °F
--% Chance of Precip.
Yesterday
High -- | Low -- °F
Precip. -- in
7:18 AM 4:19 PM
Waning Crescent, 9% visible
Pressure 30.30 in
Visibility 10.0 miles
Clouds Overcast 2000 ft
Windchill 26 °F
Dew Point 22 °F
Humidity 85%
Rainfall 0.00 in
Snow Depth Not available.
UV 0 out of 12
Pollen .10 out of 12
Air Quality Not available.
Flu Activity Not available.
METAR KMKE 190752Z 29007KT 10SM OVC020 M02/M07 A3027 RMK AO2 SLP259 T10221067

More Conditions Fewer Conditions

Pressure 30.30 in
Visibility 10.0 miles
Clouds Overcast 2000 ft
Windchill 26 °F
Dew Point 22 °F
Humidity 85%
Rainfall 0.00 in
Snow Depth Not available.
UV 0 out of 12
Pollen .10 out of 12
Air Quality Not available.
Flu Activity Not available.
METAR KMKE 190752Z 29007KT 10SM OVC020 M02/M07 A3027 RMK AO2 SLP259 T10221067

More Conditions Fewer Conditions

10-Day Weather Forecast

Almanac

Astronomy

Dec. 19, 2014 Rise Set
Actual Time
Civil Twilight
Nautical Twilight
Astronomical Twilight
Moon
Length of Visible Light
Length of Day
Tomorrow will be .
, % of the Moon is Illuminated

Today's Extremes

State Highs State Lows

Community

WunderPhotos

Upload Photos

1,778,953 photos uploaded!

WunderBlogs® & News

Nearby

Air Quality

  Air Quality AQ Index Pollutant
Not available.

Snow Depth

Station Depth Elevation

Earthquake Activity

City Distance Mag. Time & Date
Minimum magnitude displayed is 2.5.

Coastal Water Temperatures

Place Temperature

Nearby Weather Stations